sensor_id;sensor_type;location;lat;lon;timestamp;P1;durP1;ratioP1;P2;durP2;ratioP2
63499;SDS011;49654;51.142;14.924;2022-12-15T00:01:39;71.50;;;36.77;;
63499;SDS011;49654;51.142;14.924;2022-12-15T00:04:23;72.17;;;37.10;;
63499;SDS011;49654;51.142;14.924;2022-12-15T00:07:08;73.23;;;36.63;;
63499;SDS011;49654;51.142;14.924;2022-12-15T00:09:52;69.13;;;35.73;;
63499;SDS011;49654;51.142;14.924;2022-12-15T00:12:37;66.97;;;35.30;;
63499;SDS011;49654;51.142;14.924;2022-12-15T00:15:23;65.70;;;34.77;;
63499;SDS011;49654;51.142;14.924;2022-12-15T00:18:07;71.13;;;36.53;;
63499;SDS011;49654;51.142;14.924;2022-12-15T00:20:55;63.63;;;34.83;;
63499;SDS011;49654;51.142;14.924;2022-12-15T00:23:40;62.00;;;33.43;;
63499;SDS011;49654;51.142;14.924;2022-12-15T00:26:25;64.60;;;33.80;;
63499;SDS011;49654;51.142;14.924;2022-12-15T00:29:09;62.40;;;33.53;;
63499;SDS011;49654;51.142;14.924;2022-12-15T00:31:55;63.80;;;33.27;;
63499;SDS011;49654;51.142;14.924;2022-12-15T00:34:40;56.47;;;31.60;;
63499;SDS011;49654;51.142;14.924;2022-12-15T00:37:24;58.00;;;31.30;;
63499;SDS011;49654;51.142;14.924;2022-12-15T00:40:09;57.77;;;30.10;;
63499;SDS011;49654;51.142;14.924;2022-12-15T00:42:37;54.33;;;29.47;;
63499;SDS011;49654;51.142;14.924;2022-12-15T00:45:04;57.37;;;29.80;;
63499;SDS011;49654;51.142;14.924;2022-12-15T00:47:33;60.23;;;31.10;;
63499;SDS011;49654;51.142;14.924;2022-12-15T00:49:59;56.50;;;30.27;;
63499;SDS011;49654;51.142;14.924;2022-12-15T00:52:44;57.10;;;29.07;;
63499;SDS011;49654;51.142;14.924;2022-12-15T00:55:28;56.27;;;28.30;;
63499;SDS011;49654;51.142;14.924;2022-12-15T00:58:13;60.30;;;31.50;;
63499;SDS011;49654;51.142;14.924;2022-12-15T01:01:04;59.67;;;30.47;;
63499;SDS011;49654;51.142;14.924;2022-12-15T01:03:50;53.77;;;27.90;;
63499;SDS011;49654;51.142;14.924;2022-12-15T01:06:34;55.93;;;28.63;;
63499;SDS011;49654;51.142;14.924;2022-12-15T01:09:19;51.33;;;26.33;;
63499;SDS011;49654;51.142;14.924;2022-12-15T01:12:03;52.97;;;26.60;;
63499;SDS011;49654;51.142;14.924;2022-12-15T01:14:48;57.33;;;28.90;;
63499;SDS011;49654;51.142;14.924;2022-12-15T01:17:33;53.40;;;28.43;;
63499;SDS011;49654;51.142;14.924;2022-12-15T01:20:19;56.50;;;30.97;;
63499;SDS011;49654;51.142;14.924;2022-12-15T01:22:47;57.93;;;31.27;;
63499;SDS011;49654;51.142;14.924;2022-12-15T01:25:15;56.17;;;29.97;;
63499;SDS011;49654;51.142;14.924;2022-12-15T01:27:44;58.03;;;30.70;;
63499;SDS011;49654;51.142;14.924;2022-12-15T01:30:12;58.33;;;31.80;;
63499;SDS011;49654;51.142;14.924;2022-12-15T01:32:41;55.10;;;30.83;;
63499;SDS011;49654;51.142;14.924;2022-12-15T01:35:09;59.10;;;32.03;;
63499;SDS011;49654;51.142;14.924;2022-12-15T01:37:37;61.43;;;31.07;;
63499;SDS011;49654;51.142;14.924;2022-12-15T01:40:05;61.60;;;31.67;;
63499;SDS011;49654;51.142;14.924;2022-12-15T01:42:51;59.67;;;31.93;;
63499;SDS011;49654;51.142;14.924;2022-12-15T01:48:13;59.80;;;32.50;;
63499;SDS011;49654;51.142;14.924;2022-12-15T01:50:45;61.03;;;31.80;;
63499;SDS011;49654;51.142;14.924;2022-12-15T01:53:20;60.27;;;30.83;;
63499;SDS011;49654;51.142;14.924;2022-12-15T01:55:47;55.17;;;28.30;;
63499;SDS011;49654;51.142;14.924;2022-12-15T01:58:15;57.67;;;29.60;;
63499;SDS011;49654;51.142;14.924;2022-12-15T02:00:43;60.30;;;30.50;;
63499;SDS011;49654;51.142;14.924;2022-12-15T02:03:10;58.00;;;28.77;;
63499;SDS011;49654;51.142;14.924;2022-12-15T02:05:38;56.73;;;29.60;;
63499;SDS011;49654;51.142;14.924;2022-12-15T02:08:07;54.60;;;27.83;;
63499;SDS011;49654;51.142;14.924;2022-12-15T02:10:40;55.67;;;28.77;;
63499;SDS011;49654;51.142;14.924;2022-12-15T02:13:20;50.17;;;27.57;;
63499;SDS011;49654;51.142;14.924;2022-12-15T02:15:58;55.57;;;29.70;;
63499;SDS011;49654;51.142;14.924;2022-12-15T02:18:31;52.80;;;28.67;;
63499;SDS011;49654;51.142;14.924;2022-12-15T02:21:05;51.80;;;28.60;;
63499;SDS011;49654;51.142;14.924;2022-12-15T02:26:57;57.53;;;29.07;;
63499;SDS011;49654;51.142;14.924;2022-12-15T02:29:40;55.70;;;29.53;;
63499;SDS011;49654;51.142;14.924;2022-12-15T02:32:27;61.10;;;30.80;;
63499;SDS011;49654;51.142;14.924;2022-12-15T02:35:02;58.57;;;31.83;;
63499;SDS011;49654;51.142;14.924;2022-12-15T02:37:34;59.43;;;31.40;;
63499;SDS011;49654;51.142;14.924;2022-12-15T02:40:06;58.67;;;31.33;;
63499;SDS011;49654;51.142;14.924;2022-12-15T02:42:35;57.23;;;30.97;;
63499;SDS011;49654;51.142;14.924;2022-12-15T02:45:08;56.97;;;31.17;;
63499;SDS011;49654;51.142;14.924;2022-12-15T02:47:40;55.43;;;29.93;;
63499;SDS011;49654;51.142;14.924;2022-12-15T02:50:29;57.80;;;30.77;;
63499;SDS011;49654;51.142;14.924;2022-12-15T02:53:10;58.53;;;29.80;;
63499;SDS011;49654;51.142;14.924;2022-12-15T02:55:49;53.97;;;31.13;;
63499;SDS011;49654;51.142;14.924;2022-12-15T02:58:26;58.50;;;31.47;;
63499;SDS011;49654;51.142;14.924;2022-12-15T03:00:58;56.57;;;28.97;;
63499;SDS011;49654;51.142;14.924;2022-12-15T03:03:30;57.47;;;31.43;;
63499;SDS011;49654;51.142;14.924;2022-12-15T03:06:00;61.17;;;31.33;;
63499;SDS011;49654;51.142;14.924;2022-12-15T03:08:29;56.23;;;29.10;;
63499;SDS011;49654;51.142;14.924;2022-12-15T03:10:56;53.93;;;28.73;;
63499;SDS011;49654;51.142;14.924;2022-12-15T03:13:24;52.27;;;29.27;;
63499;SDS011;49654;51.142;14.924;2022-12-15T03:15:51;53.10;;;30.43;;
63499;SDS011;49654;51.142;14.924;2022-12-15T03:18:19;52.90;;;29.77;;
63499;SDS011;49654;51.142;14.924;2022-12-15T03:20:47;50.70;;;29.00;;
63499;SDS011;49654;51.142;14.924;2022-12-15T03:23:14;52.43;;;29.80;;
63499;SDS011;49654;51.142;14.924;2022-12-15T03:25:43;51.23;;;28.73;;
63499;SDS011;49654;51.142;14.924;2022-12-15T03:28:10;56.40;;;29.47;;
63499;SDS011;49654;51.142;14.924;2022-12-15T03:30:37;53.93;;;29.77;;
63499;SDS011;49654;51.142;14.924;2022-12-15T03:33:04;53.60;;;28.03;;
63499;SDS011;49654;51.142;14.924;2022-12-15T03:35:31;55.50;;;29.07;;
63499;SDS011;49654;51.142;14.924;2022-12-15T03:38:00;48.57;;;27.57;;
63499;SDS011;49654;51.142;14.924;2022-12-15T03:40:27;55.03;;;28.80;;
63499;SDS011;49654;51.142;14.924;2022-12-15T03:42:54;52.63;;;30.17;;
63499;SDS011;49654;51.142;14.924;2022-12-15T03:45:21;48.90;;;27.73;;
63499;SDS011;49654;51.142;14.924;2022-12-15T03:47:50;52.03;;;27.97;;
63499;SDS011;49654;51.142;14.924;2022-12-15T03:50:18;43.10;;;24.47;;
63499;SDS011;49654;51.142;14.924;2022-12-15T03:52:48;43.17;;;23.93;;
63499;SDS011;49654;51.142;14.924;2022-12-15T03:55:18;44.63;;;25.00;;
63499;SDS011;49654;51.142;14.924;2022-12-15T03:57:45;42.60;;;24.80;;
63499;SDS011;49654;51.142;14.924;2022-12-15T04:00:13;47.73;;;26.20;;
63499;SDS011;49654;51.142;14.924;2022-12-15T04:02:40;47.50;;;26.10;;
63499;SDS011;49654;51.142;14.924;2022-12-15T04:05:08;45.73;;;24.83;;
63499;SDS011;49654;51.142;14.924;2022-12-15T04:07:40;45.10;;;24.87;;
63499;SDS011;49654;51.142;14.924;2022-12-15T04:10:07;48.37;;;25.50;;
63499;SDS011;49654;51.142;14.924;2022-12-15T04:12:37;47.63;;;26.07;;
63499;SDS011;49654;51.142;14.924;2022-12-15T04:15:06;42.30;;;24.03;;
63499;SDS011;49654;51.142;14.924;2022-12-15T04:17:34;40.40;;;22.93;;
63499;SDS011;49654;51.142;14.924;2022-12-15T04:20:01;40.93;;;22.70;;
63499;SDS011;49654;51.142;14.924;2022-12-15T04:22:36;45.03;;;25.20;;
63499;SDS011;49654;51.142;14.924;2022-12-15T04:25:05;43.70;;;24.40;;
63499;SDS011;49654;51.142;14.924;2022-12-15T04:27:52;46.10;;;25.50;;
63499;SDS011;49654;51.142;14.924;2022-12-15T04:30:37;43.97;;;25.17;;
63499;SDS011;49654;51.142;14.924;2022-12-15T04:33:23;47.37;;;26.17;;
63499;SDS011;49654;51.142;14.924;2022-12-15T04:36:08;45.97;;;25.87;;
63499;SDS011;49654;51.142;14.924;2022-12-15T04:38:55;49.27;;;27.03;;
63499;SDS011;49654;51.142;14.924;2022-12-15T04:41:40;50.43;;;25.83;;
63499;SDS011;49654;51.142;14.924;2022-12-15T04:44:26;45.97;;;26.33;;
63499;SDS011;49654;51.142;14.924;2022-12-15T04:47:11;47.57;;;26.47;;
63499;SDS011;49654;51.142;14.924;2022-12-15T04:49:56;45.87;;;26.03;;
63499;SDS011;49654;51.142;14.924;2022-12-15T04:52:41;49.03;;;25.70;;
63499;SDS011;49654;51.142;14.924;2022-12-15T04:55:25;46.63;;;25.10;;
63499;SDS011;49654;51.142;14.924;2022-12-15T04:58:10;42.53;;;23.10;;
63499;SDS011;49654;51.142;14.924;2022-12-15T05:00:56;46.53;;;24.73;;
63499;SDS011;49654;51.142;14.924;2022-12-15T05:03:41;44.80;;;23.83;;
63499;SDS011;49654;51.142;14.924;2022-12-15T05:06:26;47.53;;;24.73;;
63499;SDS011;49654;51.142;14.924;2022-12-15T05:09:11;47.43;;;23.60;;
63499;SDS011;49654;51.142;14.924;2022-12-15T05:11:56;42.90;;;23.00;;
63499;SDS011;49654;51.142;14.924;2022-12-15T05:14:40;48.20;;;23.67;;
63499;SDS011;49654;51.142;14.924;2022-12-15T05:17:26;42.97;;;23.07;;
63499;SDS011;49654;51.142;14.924;2022-12-15T05:20:12;42.87;;;23.13;;
63499;SDS011;49654;51.142;14.924;2022-12-15T05:22:56;40.07;;;21.87;;
63499;SDS011;49654;51.142;14.924;2022-12-15T05:25:41;41.33;;;22.47;;
63499;SDS011;49654;51.142;14.924;2022-12-15T05:28:27;43.90;;;23.10;;
63499;SDS011;49654;51.142;14.924;2022-12-15T05:31:11;44.90;;;23.53;;
63499;SDS011;49654;51.142;14.924;2022-12-15T05:33:58;42.57;;;23.53;;
63499;SDS011;49654;51.142;14.924;2022-12-15T05:36:25;43.13;;;22.43;;
63499;SDS011;49654;51.142;14.924;2022-12-15T05:38:52;40.47;;;22.57;;
63499;SDS011;49654;51.142;14.924;2022-12-15T05:41:19;48.03;;;22.37;;
63499;SDS011;49654;51.142;14.924;2022-12-15T05:43:47;38.97;;;21.43;;
63499;SDS011;49654;51.142;14.924;2022-12-15T05:46:15;44.07;;;23.03;;
63499;SDS011;49654;51.142;14.924;2022-12-15T05:48:42;44.27;;;21.90;;
63499;SDS011;49654;51.142;14.924;2022-12-15T05:51:10;42.20;;;23.07;;
63499;SDS011;49654;51.142;14.924;2022-12-15T05:53:39;47.63;;;23.83;;
63499;SDS011;49654;51.142;14.924;2022-12-15T05:56:08;44.47;;;22.27;;
63499;SDS011;49654;51.142;14.924;2022-12-15T05:58:37;48.63;;;24.47;;
63499;SDS011;49654;51.142;14.924;2022-12-15T06:01:05;52.13;;;24.57;;
63499;SDS011;49654;51.142;14.924;2022-12-15T06:03:34;49.47;;;25.23;;
63499;SDS011;49654;51.142;14.924;2022-12-15T06:06:01;45.80;;;23.10;;
63499;SDS011;49654;51.142;14.924;2022-12-15T06:08:32;46.73;;;24.20;;
63499;SDS011;49654;51.142;14.924;2022-12-15T06:11:00;43.57;;;22.67;;
63499;SDS011;49654;51.142;14.924;2022-12-15T06:13:28;48.50;;;23.77;;
63499;SDS011;49654;51.142;14.924;2022-12-15T06:15:57;46.40;;;24.17;;
63499;SDS011;49654;51.142;14.924;2022-12-15T06:18:27;43.73;;;24.00;;
63499;SDS011;49654;51.142;14.924;2022-12-15T06:20:56;42.17;;;22.23;;
63499;SDS011;49654;51.142;14.924;2022-12-15T06:23:24;42.57;;;21.27;;
63499;SDS011;49654;51.142;14.924;2022-12-15T06:25:53;44.17;;;21.27;;
63499;SDS011;49654;51.142;14.924;2022-12-15T06:28:21;39.93;;;20.23;;
63499;SDS011;49654;51.142;14.924;2022-12-15T06:30:50;39.37;;;19.90;;
63499;SDS011;49654;51.142;14.924;2022-12-15T06:33:18;44.67;;;20.03;;
63499;SDS011;49654;51.142;14.924;2022-12-15T06:35:46;45.47;;;20.50;;
63499;SDS011;49654;51.142;14.924;2022-12-15T06:38:14;38.20;;;19.20;;
63499;SDS011;49654;51.142;14.924;2022-12-15T06:40:41;37.33;;;19.47;;
63499;SDS011;49654;51.142;14.924;2022-12-15T06:43:09;38.33;;;18.97;;
63499;SDS011;49654;51.142;14.924;2022-12-15T06:45:36;42.40;;;19.63;;
63499;SDS011;49654;51.142;14.924;2022-12-15T06:48:04;38.60;;;19.53;;
63499;SDS011;49654;51.142;14.924;2022-12-15T06:50:32;41.27;;;21.43;;
63499;SDS011;49654;51.142;14.924;2022-12-15T06:52:59;40.87;;;20.93;;
63499;SDS011;49654;51.142;14.924;2022-12-15T06:55:26;40.13;;;19.73;;
63499;SDS011;49654;51.142;14.924;2022-12-15T06:57:53;41.13;;;20.50;;
63499;SDS011;49654;51.142;14.924;2022-12-15T07:00:22;41.40;;;21.30;;
63499;SDS011;49654;51.142;14.924;2022-12-15T07:02:49;45.97;;;21.83;;
63499;SDS011;49654;51.142;14.924;2022-12-15T07:05:16;41.40;;;21.17;;
63499;SDS011;49654;51.142;14.924;2022-12-15T07:07:43;42.57;;;21.03;;
63499;SDS011;49654;51.142;14.924;2022-12-15T07:10:10;41.37;;;22.00;;
63499;SDS011;49654;51.142;14.924;2022-12-15T07:12:38;43.13;;;21.40;;
63499;SDS011;49654;51.142;14.924;2022-12-15T07:15:05;43.87;;;22.13;;
63499;SDS011;49654;51.142;14.924;2022-12-15T07:17:35;43.30;;;22.63;;
63499;SDS011;49654;51.142;14.924;2022-12-15T07:20:03;45.07;;;22.03;;
63499;SDS011;49654;51.142;14.924;2022-12-15T07:22:30;44.10;;;21.50;;
63499;SDS011;49654;51.142;14.924;2022-12-15T07:24:57;44.20;;;22.63;;
63499;SDS011;49654;51.142;14.924;2022-12-15T07:27:25;41.43;;;21.97;;
63499;SDS011;49654;51.142;14.924;2022-12-15T07:29:52;42.57;;;21.90;;
63499;SDS011;49654;51.142;14.924;2022-12-15T07:32:19;41.30;;;21.47;;
63499;SDS011;49654;51.142;14.924;2022-12-15T07:34:48;41.43;;;22.30;;
63499;SDS011;49654;51.142;14.924;2022-12-15T07:37:15;44.33;;;23.10;;
63499;SDS011;49654;51.142;14.924;2022-12-15T07:39:42;48.80;;;23.63;;
63499;SDS011;49654;51.142;14.924;2022-12-15T07:42:09;46.63;;;23.70;;
63499;SDS011;49654;51.142;14.924;2022-12-15T07:44:36;42.67;;;23.03;;
63499;SDS011;49654;51.142;14.924;2022-12-15T07:47:03;41.07;;;22.33;;
63499;SDS011;49654;51.142;14.924;2022-12-15T07:49:30;42.90;;;23.10;;
63499;SDS011;49654;51.142;14.924;2022-12-15T07:51:59;43.30;;;23.17;;
63499;SDS011;49654;51.142;14.924;2022-12-15T07:54:26;45.33;;;23.07;;
63499;SDS011;49654;51.142;14.924;2022-12-15T07:56:53;46.50;;;23.10;;
63499;SDS011;49654;51.142;14.924;2022-12-15T07:59:20;45.87;;;24.90;;
63499;SDS011;49654;51.142;14.924;2022-12-15T08:01:48;45.73;;;24.83;;
63499;SDS011;49654;51.142;14.924;2022-12-15T08:04:15;48.17;;;25.73;;
63499;SDS011;49654;51.142;14.924;2022-12-15T08:06:43;46.93;;;25.97;;
63499;SDS011;49654;51.142;14.924;2022-12-15T08:09:11;47.63;;;25.03;;
63499;SDS011;49654;51.142;14.924;2022-12-15T08:11:39;48.10;;;25.37;;
63499;SDS011;49654;51.142;14.924;2022-12-15T08:14:06;53.17;;;27.33;;
63499;SDS011;49654;51.142;14.924;2022-12-15T08:16:33;52.97;;;26.53;;
63499;SDS011;49654;51.142;14.924;2022-12-15T08:19:01;53.97;;;26.97;;
63499;SDS011;49654;51.142;14.924;2022-12-15T08:21:29;47.90;;;25.40;;
63499;SDS011;49654;51.142;14.924;2022-12-15T08:23:57;46.80;;;26.67;;
63499;SDS011;49654;51.142;14.924;2022-12-15T08:26:27;52.83;;;27.27;;
63499;SDS011;49654;51.142;14.924;2022-12-15T08:28:54;48.27;;;25.53;;
63499;SDS011;49654;51.142;14.924;2022-12-15T08:31:22;48.27;;;25.83;;
63499;SDS011;49654;51.142;14.924;2022-12-15T08:33:50;41.90;;;24.67;;
63499;SDS011;49654;51.142;14.924;2022-12-15T08:36:17;45.60;;;25.50;;
63499;SDS011;49654;51.142;14.924;2022-12-15T08:38:45;45.97;;;23.87;;
63499;SDS011;49654;51.142;14.924;2022-12-15T08:41:13;43.77;;;24.30;;
63499;SDS011;49654;51.142;14.924;2022-12-15T08:43:44;47.70;;;25.57;;
63499;SDS011;49654;51.142;14.924;2022-12-15T08:46:12;47.70;;;25.70;;
63499;SDS011;49654;51.142;14.924;2022-12-15T08:48:39;47.00;;;26.53;;
63499;SDS011;49654;51.142;14.924;2022-12-15T08:51:06;46.50;;;24.63;;
63499;SDS011;49654;51.142;14.924;2022-12-15T08:53:34;45.23;;;23.73;;
63499;SDS011;49654;51.142;14.924;2022-12-15T08:56:01;44.27;;;23.40;;
63499;SDS011;49654;51.142;14.924;2022-12-15T08:58:30;44.43;;;23.10;;
63499;SDS011;49654;51.142;14.924;2022-12-15T09:01:00;40.73;;;23.07;;
63499;SDS011;49654;51.142;14.924;2022-12-15T09:03:27;43.67;;;23.77;;
63499;SDS011;49654;51.142;14.924;2022-12-15T09:05:54;43.40;;;23.83;;
63499;SDS011;49654;51.142;14.924;2022-12-15T09:08:23;43.50;;;23.47;;
63499;SDS011;49654;51.142;14.924;2022-12-15T09:10:50;44.70;;;23.57;;
63499;SDS011;49654;51.142;14.924;2022-12-15T09:13:17;46.63;;;25.23;;
63499;SDS011;49654;51.142;14.924;2022-12-15T09:15:44;41.47;;;23.70;;
63499;SDS011;49654;51.142;14.924;2022-12-15T09:18:13;44.03;;;24.70;;
63499;SDS011;49654;51.142;14.924;2022-12-15T09:20:41;46.43;;;24.63;;
63499;SDS011;49654;51.142;14.924;2022-12-15T09:23:08;42.83;;;24.57;;
63499;SDS011;49654;51.142;14.924;2022-12-15T09:25:35;44.60;;;24.40;;
63499;SDS011;49654;51.142;14.924;2022-12-15T09:28:02;44.23;;;23.83;;
63499;SDS011;49654;51.142;14.924;2022-12-15T09:30:29;45.83;;;25.13;;
63499;SDS011;49654;51.142;14.924;2022-12-15T09:32:56;44.00;;;24.00;;
63499;SDS011;49654;51.142;14.924;2022-12-15T09:35:26;45.70;;;24.73;;
63499;SDS011;49654;51.142;14.924;2022-12-15T09:37:55;40.83;;;22.80;;
63499;SDS011;49654;51.142;14.924;2022-12-15T09:40:22;41.60;;;24.37;;
63499;SDS011;49654;51.142;14.924;2022-12-15T09:42:50;44.80;;;23.97;;
63499;SDS011;49654;51.142;14.924;2022-12-15T09:45:20;40.50;;;23.10;;
63499;SDS011;49654;51.142;14.924;2022-12-15T09:47:52;42.40;;;23.43;;
63499;SDS011;49654;51.142;14.924;2022-12-15T09:50:23;43.60;;;22.90;;
63499;SDS011;49654;51.142;14.924;2022-12-15T09:52:55;41.63;;;23.83;;
63499;SDS011;49654;51.142;14.924;2022-12-15T09:55:24;40.47;;;22.90;;
63499;SDS011;49654;51.142;14.924;2022-12-15T09:57:54;40.67;;;23.43;;
63499;SDS011;49654;51.142;14.924;2022-12-15T10:00:23;41.57;;;23.37;;
63499;SDS011;49654;51.142;14.924;2022-12-15T10:03:03;42.43;;;24.33;;
63499;SDS011;49654;51.142;14.924;2022-12-15T10:05:45;42.27;;;23.47;;
63499;SDS011;49654;51.142;14.924;2022-12-15T10:08:20;39.50;;;21.70;;
63499;SDS011;49654;51.142;14.924;2022-12-15T10:10:50;36.87;;;21.67;;
63499;SDS011;49654;51.142;14.924;2022-12-15T10:13:32;41.73;;;22.47;;
63499;SDS011;49654;51.142;14.924;2022-12-15T10:16:12;43.90;;;23.60;;
63499;SDS011;49654;51.142;14.924;2022-12-15T10:18:49;43.07;;;23.50;;
63499;SDS011;49654;51.142;14.924;2022-12-15T10:21:25;44.50;;;23.80;;
63499;SDS011;49654;51.142;14.924;2022-12-15T10:23:54;45.13;;;24.10;;
63499;SDS011;49654;51.142;14.924;2022-12-15T10:26:25;41.97;;;23.30;;
63499;SDS011;49654;51.142;14.924;2022-12-15T10:29:12;43.33;;;24.13;;
63499;SDS011;49654;51.142;14.924;2022-12-15T10:31:51;45.07;;;24.10;;
63499;SDS011;49654;51.142;14.924;2022-12-15T10:34:24;52.93;;;25.70;;
63499;SDS011;49654;51.142;14.924;2022-12-15T10:36:54;51.97;;;25.97;;
63499;SDS011;49654;51.142;14.924;2022-12-15T10:39:23;48.47;;;26.27;;
63499;SDS011;49654;51.142;14.924;2022-12-15T10:42:12;49.53;;;25.60;;
63499;SDS011;49654;51.142;14.924;2022-12-15T10:44:46;52.07;;;26.97;;
63499;SDS011;49654;51.142;14.924;2022-12-15T10:47:19;50.30;;;26.93;;
63499;SDS011;49654;51.142;14.924;2022-12-15T10:49:48;53.23;;;28.17;;
63499;SDS011;49654;51.142;14.924;2022-12-15T10:52:20;48.90;;;27.00;;
63499;SDS011;49654;51.142;14.924;2022-12-15T10:54:50;46.93;;;24.67;;
63499;SDS011;49654;51.142;14.924;2022-12-15T10:57:19;49.30;;;26.03;;
63499;SDS011;49654;51.142;14.924;2022-12-15T10:59:48;48.90;;;27.03;;
63499;SDS011;49654;51.142;14.924;2022-12-15T11:02:21;46.97;;;24.67;;
63499;SDS011;49654;51.142;14.924;2022-12-15T11:04:57;49.20;;;27.07;;
63499;SDS011;49654;51.142;14.924;2022-12-15T11:07:29;51.80;;;25.70;;
63499;SDS011;49654;51.142;14.924;2022-12-15T11:10:02;50.70;;;26.60;;
63499;SDS011;49654;51.142;14.924;2022-12-15T11:12:40;54.27;;;27.93;;
63499;SDS011;49654;51.142;14.924;2022-12-15T11:15:33;53.10;;;27.67;;
63499;SDS011;49654;51.142;14.924;2022-12-15T11:18:06;50.90;;;27.33;;
63499;SDS011;49654;51.142;14.924;2022-12-15T11:20:41;50.03;;;26.33;;
63499;SDS011;49654;51.142;14.924;2022-12-15T11:23:13;57.87;;;28.37;;
63499;SDS011;49654;51.142;14.924;2022-12-15T11:25:45;51.80;;;27.43;;
63499;SDS011;49654;51.142;14.924;2022-12-15T11:28:19;49.00;;;26.33;;
63499;SDS011;49654;51.142;14.924;2022-12-15T11:30:51;53.10;;;26.13;;
63499;SDS011;49654;51.142;14.924;2022-12-15T11:33:22;50.07;;;25.93;;
63499;SDS011;49654;51.142;14.924;2022-12-15T11:35:54;49.87;;;26.37;;
63499;SDS011;49654;51.142;14.924;2022-12-15T11:38:37;51.97;;;26.77;;
63499;SDS011;49654;51.142;14.924;2022-12-15T11:41:11;52.83;;;27.67;;
63499;SDS011;49654;51.142;14.924;2022-12-15T11:46:45;48.47;;;24.87;;
63499;SDS011;49654;51.142;14.924;2022-12-15T11:49:26;49.73;;;26.50;;
63499;SDS011;49654;51.142;14.924;2022-12-15T11:52:01;48.70;;;25.80;;
63499;SDS011;49654;51.142;14.924;2022-12-15T11:54:36;44.37;;;24.77;;
63499;SDS011;49654;51.142;14.924;2022-12-15T11:57:13;49.87;;;27.13;;
63499;SDS011;49654;51.142;14.924;2022-12-15T12:00:01;44.13;;;24.73;;
63499;SDS011;49654;51.142;14.924;2022-12-15T12:02:37;46.13;;;24.30;;
63499;SDS011;49654;51.142;14.924;2022-12-15T12:05:22;48.67;;;25.17;;
63499;SDS011;49654;51.142;14.924;2022-12-15T12:08:05;45.70;;;24.50;;
63499;SDS011;49654;51.142;14.924;2022-12-15T12:10:47;44.97;;;24.50;;
63499;SDS011;49654;51.142;14.924;2022-12-15T12:13:22;41.63;;;23.37;;
63499;SDS011;49654;51.142;14.924;2022-12-15T12:15:56;43.60;;;22.70;;
63499;SDS011;49654;51.142;14.924;2022-12-15T12:18:35;41.73;;;23.57;;
63499;SDS011;49654;51.142;14.924;2022-12-15T12:21:07;47.83;;;24.47;;
63499;SDS011;49654;51.142;14.924;2022-12-15T12:23:37;43.17;;;23.93;;
63499;SDS011;49654;51.142;14.924;2022-12-15T12:26:11;46.17;;;24.47;;
63499;SDS011;49654;51.142;14.924;2022-12-15T12:28:44;42.83;;;23.53;;
63499;SDS011;49654;51.142;14.924;2022-12-15T12:31:18;44.03;;;23.27;;
63499;SDS011;49654;51.142;14.924;2022-12-15T12:33:53;39.50;;;21.80;;
63499;SDS011;49654;51.142;14.924;2022-12-15T12:36:24;47.10;;;24.17;;
63499;SDS011;49654;51.142;14.924;2022-12-15T12:38:51;41.17;;;22.47;;
63499;SDS011;49654;51.142;14.924;2022-12-15T12:41:24;42.53;;;21.87;;
63499;SDS011;49654;51.142;14.924;2022-12-15T12:44:00;46.23;;;22.63;;
63499;SDS011;49654;51.142;14.924;2022-12-15T12:46:34;42.07;;;22.43;;
63499;SDS011;49654;51.142;14.924;2022-12-15T12:49:07;41.43;;;21.60;;
63499;SDS011;49654;51.142;14.924;2022-12-15T12:51:47;40.50;;;21.43;;
63499;SDS011;49654;51.142;14.924;2022-12-15T12:57:28;43.30;;;20.90;;
63499;SDS011;49654;51.142;14.924;2022-12-15T13:00:02;40.90;;;19.87;;
63499;SDS011;49654;51.142;14.924;2022-12-15T13:02:46;43.80;;;20.80;;
63499;SDS011;49654;51.142;14.924;2022-12-15T13:05:23;43.23;;;21.50;;
63499;SDS011;49654;51.142;14.924;2022-12-15T13:07:53;39.77;;;20.57;;
63499;SDS011;49654;51.142;14.924;2022-12-15T13:10:23;42.43;;;21.03;;
63499;SDS011;49654;51.142;14.924;2022-12-15T13:12:52;40.17;;;19.90;;
63499;SDS011;49654;51.142;14.924;2022-12-15T13:15:34;41.87;;;20.47;;
63499;SDS011;49654;51.142;14.924;2022-12-15T13:18:06;36.77;;;20.07;;
63499;SDS011;49654;51.142;14.924;2022-12-15T13:20:39;36.00;;;19.47;;
63499;SDS011;49654;51.142;14.924;2022-12-15T13:26:12;38.37;;;20.33;;
63499;SDS011;49654;51.142;14.924;2022-12-15T13:28:43;35.63;;;20.20;;
63499;SDS011;49654;51.142;14.924;2022-12-15T13:31:25;37.30;;;20.43;;
63499;SDS011;49654;51.142;14.924;2022-12-15T13:33:55;35.53;;;19.30;;
63499;SDS011;49654;51.142;14.924;2022-12-15T13:36:44;37.37;;;20.87;;
63499;SDS011;49654;51.142;14.924;2022-12-15T13:42:26;36.03;;;20.70;;
63499;SDS011;49654;51.142;14.924;2022-12-15T13:48:10;36.43;;;19.57;;
63499;SDS011;49654;51.142;14.924;2022-12-15T13:50:43;41.20;;;20.77;;
63499;SDS011;49654;51.142;14.924;2022-12-15T13:53:16;43.13;;;20.43;;
63499;SDS011;49654;51.142;14.924;2022-12-15T13:55:55;36.10;;;19.43;;
63499;SDS011;49654;51.142;14.924;2022-12-15T13:58:26;38.57;;;20.53;;
63499;SDS011;49654;51.142;14.924;2022-12-15T14:00:58;36.63;;;18.73;;
63499;SDS011;49654;51.142;14.924;2022-12-15T14:03:26;34.80;;;19.37;;
63499;SDS011;49654;51.142;14.924;2022-12-15T14:05:54;36.83;;;18.43;;
63499;SDS011;49654;51.142;14.924;2022-12-15T14:08:23;39.17;;;19.33;;
63499;SDS011;49654;51.142;14.924;2022-12-15T14:10:53;38.47;;;18.57;;
63499;SDS011;49654;51.142;14.924;2022-12-15T14:13:22;38.53;;;19.53;;
63499;SDS011;49654;51.142;14.924;2022-12-15T14:15:51;37.63;;;19.17;;
63499;SDS011;49654;51.142;14.924;2022-12-15T14:18:21;42.50;;;19.43;;
63499;SDS011;49654;51.142;14.924;2022-12-15T14:20:52;37.40;;;18.47;;
63499;SDS011;49654;51.142;14.924;2022-12-15T14:23:20;39.33;;;18.77;;
63499;SDS011;49654;51.142;14.924;2022-12-15T14:25:52;40.47;;;19.57;;
63499;SDS011;49654;51.142;14.924;2022-12-15T14:28:28;37.10;;;18.33;;
63499;SDS011;49654;51.142;14.924;2022-12-15T14:30:57;37.00;;;18.97;;
63499;SDS011;49654;51.142;14.924;2022-12-15T14:33:28;39.43;;;19.27;;
63499;SDS011;49654;51.142;14.924;2022-12-15T14:36:00;45.13;;;21.33;;
63499;SDS011;49654;51.142;14.924;2022-12-15T14:38:31;41.77;;;20.40;;
63499;SDS011;49654;51.142;14.924;2022-12-15T14:41:08;38.13;;;17.37;;
63499;SDS011;49654;51.142;14.924;2022-12-15T14:43:46;37.13;;;18.47;;
63499;SDS011;49654;51.142;14.924;2022-12-15T14:46:16;38.20;;;18.70;;
63499;SDS011;49654;51.142;14.924;2022-12-15T14:48:48;38.87;;;19.17;;
63499;SDS011;49654;51.142;14.924;2022-12-15T14:51:20;42.67;;;19.37;;
63499;SDS011;49654;51.142;14.924;2022-12-15T14:53:51;41.70;;;19.37;;
63499;SDS011;49654;51.142;14.924;2022-12-15T14:56:23;40.20;;;19.37;;
63499;SDS011;49654;51.142;14.924;2022-12-15T14:58:53;35.87;;;17.23;;
63499;SDS011;49654;51.142;14.924;2022-12-15T15:01:25;42.97;;;18.03;;
63499;SDS011;49654;51.142;14.924;2022-12-15T15:04:00;40.90;;;18.93;;